Terminal Aerodrome Forecast
Issued by NWS Mt. Holly, NJ

Home | Current Version | Previous Version | Text Only | Print | Product List | Glossary On
Versions: 1 2 3 4 5 6 7 8 9 10 11 12 13 14 15 16 17 18
000
FTUS41 KPHI 301309 AAA
TAFILG
TAF AMD
KILG 301309Z 3013/3112 27005KT P6SM VCSH BKN015 OVC040
      TEMPO 3018/3021 -SHRA SCT015 BKN025
     FM302100 27005KT P6SM SCT025 BKN040
     FM310200 25005KT 6SM BR BKN030=

USA.gov is the U.S. government's official web portal to all federal, state and local government web resources and services.